Time;durP1;ratioP1;P1;durP2;ratioP2;P2;SDS_P1;SDS_P2;PMS_P1;PMS_P2;Temp;Humidity;BMP_temperature;BMP_pressure;BME280_temperature;BME280_humidity;BME280_pressure;Samples;Min_cycle;Max_cycle;Signal;HPM_P1;HPM_P2
2022/03/06 00:00:09;;;;;;;22.90;17.33;;;5.40;69.80;;;;;;5030863;28;20189;-68
2022/03/06 00:02:35;;;;;;;20.92;16.92;;;5.40;71.00;;;;;;5031151;28;20429;-68
2022/03/06 00:05:01;;;;;;;27.25;16.50;;;5.40;70.90;;;;;;5031406;28;20178;-67
2022/03/06 00:07:27;;;;;;;22.02;16.02;;;5.40;70.00;;;;;;5030898;28;20233;-68
2022/03/06 00:09:53;;;;;;;23.20;16.43;;;5.40;70.30;;;;;;5029542;28;20174;-68
2022/03/06 00:12:18;;;;;;;24.23;16.10;;;5.30;70.00;;;;;;4995981;28;20210;-68
2022/03/06 00:14:44;;;;;;;25.53;17.50;;;5.00;69.80;;;;;;5012277;28;20334;-67
2022/03/06 00:17:10;;;;;;;22.13;16.90;;;5.30;70.00;;;;;;5017963;28;20210;-68
2022/03/06 00:19:36;;;;;;;26.90;18.10;;;5.30;70.00;;;;;;5017658;28;20195;-68
2022/03/06 00:22:02;;;;;;;25.97;17.40;;;5.30;70.20;;;;;;5012078;28;20543;-78
2022/03/06 00:24:28;;;;;;;24.92;18.85;;;5.30;70.40;;;;;;4994825;28;20179;-68
2022/03/06 00:26:53;;;;;;;25.50;18.27;;;5.20;70.40;;;;;;5020460;28;20178;-68
2022/03/06 00:29:19;;;;;;;26.70;17.70;;;5.40;70.90;;;;;;5034764;28;20225;-68
2022/03/06 00:31:45;;;;;;;28.03;19.30;;;5.00;71.10;;;;;;5035200;28;20174;-68
2022/03/06 00:34:10;;;;;;;23.20;17.37;;;5.00;71.60;;;;;;5034303;28;20183;-68
2022/03/06 00:36:37;;;;;;;26.50;18.80;;;5.00;71.90;;;;;;5034723;28;20712;-68
2022/03/06 00:39:04;;;;;;;28.00;19.52;;;5.00;72.30;;;;;;5017004;28;20187;-78
2022/03/06 00:41:30;;;;;;;23.40;17.40;;;5.10;72.50;;;;;;5034849;28;20170;-67
2022/03/06 00:43:56;;;;;;;27.93;17.30;;;5.00;72.30;;;;;;5034709;28;20589;-67
2022/03/06 00:46:22;;;;;;;27.50;18.57;;;5.10;72.30;;;;;;5033912;28;20395;-68
2022/03/06 00:48:47;;;;;;;21.80;16.97;;;5.10;73.40;;;;;;5017343;28;20232;-68
2022/03/06 00:51:14;;;;;;;23.33;16.50;;;5.10;72.50;;;;;;5034380;28;20440;-68
2022/03/06 00:53:41;;;;;;;22.48;17.33;;;5.00;72.00;;;;;;5035076;28;20471;-67
2022/03/06 00:56:07;;;;;;;24.77;17.92;;;4.80;71.80;;;;;;5030900;28;20174;-69
2022/03/06 00:58:33;;;;;;;24.03;17.40;;;5.10;72.20;;;;;;5016662;28;20203;-68
2022/03/06 01:00:58;;;;;;;21.17;16.00;;;4.60;71.60;;;;;;5035327;28;20174;-67
2022/03/06 01:03:24;;;;;;;24.83;16.40;;;5.00;71.90;;;;;;5034018;28;20191;-68
2022/03/06 01:05:50;;;;;;;26.87;16.93;;;4.70;71.60;;;;;;5034989;28;20646;-68
2022/03/06 01:08:16;;;;;;;25.27;17.73;;;5.00;71.60;;;;;;5033357;28;20183;-68
2022/03/06 01:10:45;;;;;;;21.40;16.10;;;4.90;71.60;;;;;;5017918;28;20194;-67
2022/03/06 01:13:11;;;;;;;21.92;16.27;;;4.80;72.00;;;;;;5022555;28;20491;-68
2022/03/06 01:15:37;;;;;;;23.83;17.70;;;4.80;72.50;;;;;;5035140;28;20205;-69
2022/03/06 01:18:08;;;;;;;25.15;17.58;;;4.70;72.70;;;;;;5034522;28;20536;-81
2022/03/06 01:20:35;;;;;;;23.42;16.27;;;4.70;73.30;;;;;;5034016;28;20187;-69
2022/03/06 01:23:00;;;;;;;29.23;17.10;;;4.70;73.70;;;;;;5034591;28;20206;-69
2022/03/06 01:25:26;;;;;;;25.30;16.80;;;4.70;73.60;;;;;;5033746;28;20229;-69
2022/03/06 01:27:52;;;;;;;27.20;17.57;;;4.60;73.60;;;;;;5034705;28;20710;-69
2022/03/06 01:30:21;;;;;;;25.60;17.80;;;4.50;74.00;;;;;;5006833;28;20414;-70
2022/03/06 01:32:48;;;;;;;22.10;17.58;;;4.10;74.20;;;;;;5014419;28;20171;-69
2022/03/06 01:35:14;;;;;;;24.73;18.23;;;4.50;74.90;;;;;;5030292;28;20269;-70
2022/03/06 01:37:39;;;;;;;23.73;17.73;;;4.60;75.00;;;;;;5032184;28;20342;-71
2022/03/06 01:40:07;;;;;;;21.80;16.67;;;4.30;74.50;;;;;;5033415;28;20414;-81
2022/03/06 01:42:33;;;;;;;26.67;17.88;;;4.60;74.70;;;;;;5024810;28;20642;-69
2022/03/06 01:44:59;;;;;;;21.00;17.17;;;4.60;74.50;;;;;;5022858;28;20203;-69
2022/03/06 01:47:54;;;;;;;24.67;17.73;;;4.70;74.90;;;;;;5021380;28;20479;-73
2022/03/06 01:50:21;;;;;;;23.60;18.67;;;4.60;75.10;;;;;;5022237;28;20492;-69
2022/03/06 01:52:50;;;;;;;22.80;16.80;;;4.70;75.20;;;;;;5022048;28;20518;-70
2022/03/06 01:55:17;;;;;;;22.95;16.70;;;4.70;75.40;;;;;;5022020;28;20178;-73
2022/03/06 01:57:45;;;;;;;23.95;15.80;;;4.60;75.60;;;;;;5003497;28;20268;-69
2022/03/06 02:00:14;;;;;;;23.70;17.42;;;4.60;76.30;;;;;;5023050;28;20179;-70
2022/03/06 02:02:41;;;;;;;25.70;17.02;;;4.70;76.50;;;;;;5022386;28;20175;-69
2022/03/06 02:05:08;;;;;;;23.60;16.83;;;4.60;76.30;;;;;;5023799;28;20175;-82
2022/03/06 02:07:33;;;;;;;25.88;17.35;;;4.60;75.90;;;;;;5005797;28;20179;-69
2022/03/06 02:10:01;;;;;;;23.13;16.03;;;4.50;75.80;;;;;;5021161;28;20182;-69
2022/03/06 02:12:27;;;;;;;21.73;16.30;;;4.50;76.00;;;;;;5015202;28;20186;-68
2022/03/06 02:14:58;;;;;;;23.67;17.40;;;4.20;76.10;;;;;;5028030;28;20206;-69
2022/03/06 02:17:24;;;;;;;25.42;17.60;;;4.40;76.60;;;;;;5032643;28;20216;-69
2022/03/06 02:20:00;;;;;;;29.02;16.92;;;4.30;76.70;;;;;;5033253;28;20539;-69
2022/03/06 02:22:30;;;;;;;24.20;16.73;;;4.30;77.00;;;;;;5031263;28;20800;-69
2022/03/06 02:24:58;;;;;;;26.05;18.58;;;4.30;77.40;;;;;;5033307;28;20262;-69
2022/03/06 02:27:24;;;;;;;25.60;17.75;;;4.30;77.90;;;;;;5032411;28;20186;-69
2022/03/06 02:29:50;;;;;;;23.73;18.00;;;3.80;77.70;;;;;;5033162;28;20170;-69
2022/03/06 02:32:19;;;;;;;24.17;16.73;;;4.30;78.80;;;;;;5032833;28;20413;-69
2022/03/06 02:34:47;;;;;;;25.30;17.50;;;4.30;79.00;;;;;;5033042;28;20387;-69
2022/03/06 02:37:15;;;;;;;24.63;18.00;;;4.30;78.90;;;;;;5024557;28;20293;-70
2022/03/06 02:39:45;;;;;;;23.13;17.58;;;4.30;79.10;;;;;;5016542;28;20192;-69
2022/03/06 02:42:32;;;;;;;26.00;17.95;;;4.20;79.00;;;;;;5012869;28;20267;-70
2022/03/06 02:44:59;;;;;;;24.08;16.85;;;4.20;79.20;;;;;;5014237;28;20181;-69
2022/03/06 02:47:26;;;;;;;26.38;18.13;;;4.10;79.50;;;;;;5003555;28;20221;-69
2022/03/06 02:49:52;;;;;;;23.02;17.17;;;4.40;80.70;;;;;;5017698;28;20238;-69
2022/03/06 02:52:19;;;;;;;24.70;18.92;;;4.40;81.20;;;;;;5012316;28;20183;-69
2022/03/06 02:54:45;;;;;;;28.63;18.85;;;4.40;81.40;;;;;;5024868;28;20177;-69
2022/03/06 02:57:11;;;;;;;24.80;17.50;;;4.50;82.00;;;;;;5019439;28;20203;-70
2022/03/06 02:59:38;;;;;;;28.00;18.60;;;4.40;82.20;;;;;;5023603;28;20190;-69
2022/03/06 03:02:05;;;;;;;25.67;18.58;;;4.20;82.30;;;;;;5020924;28;20179;-70
2022/03/06 03:04:32;;;;;;;25.05;17.48;;;4.40;82.30;;;;;;5021241;28;20258;-69
2022/03/06 03:06:58;;;;;;;22.35;16.90;;;4.30;83.00;;;;;;5020120;28;20183;-69
2022/03/06 03:09:25;;;;;;;24.27;18.38;;;4.40;83.50;;;;;;5020913;28;20235;-71
2022/03/06 03:11:52;;;;;;;25.17;18.45;;;4.40;83.50;;;;;;5021939;28;20176;-69
2022/03/06 03:14:18;;;;;;;23.20;18.30;;;4.30;83.50;;;;;;5001331;28;20536;-75
2022/03/06 03:16:45;;;;;;;26.10;17.70;;;4.30;83.70;;;;;;5022346;28;20183;-71
2022/03/06 03:19:11;;;;;;;23.50;17.45;;;4.30;83.90;;;;;;5022282;28;20628;-70
2022/03/06 03:21:36;;;;;;;28.27;18.10;;;4.30;83.50;;;;;;5022628;28;20185;-69
2022/03/06 03:24:03;;;;;;;23.13;17.37;;;4.30;84.00;;;;;;5019845;28;20174;-69
2022/03/06 03:26:29;;;;;;;25.13;18.70;;;4.40;85.00;;;;;;5019881;28;20179;-69
2022/03/06 03:28:54;;;;;;;22.80;17.27;;;4.40;85.60;;;;;;4986874;28;20244;-69
2022/03/06 03:31:20;;;;;;;25.97;18.10;;;4.40;85.00;;;;;;5020195;28;20422;-68
2022/03/06 03:33:46;;;;;;;22.63;17.53;;;4.40;84.80;;;;;;5029023;28;20572;-67
2022/03/06 03:36:12;;;;;;;24.50;18.30;;;4.60;84.90;;;;;;5031349;28;20412;-68
2022/03/06 03:38:39;;;;;;;25.70;18.77;;;4.50;84.20;;;;;;5014623;28;20289;-67
2022/03/06 03:41:06;;;;;;;27.80;19.85;;;4.50;84.70;;;;;;5014371;28;20244;-66
2022/03/06 03:43:32;;;;;;;23.45;17.30;;;4.50;84.70;;;;;;5031122;28;20186;-67
2022/03/06 03:45:57;;;;;;;25.10;17.90;;;4.50;84.20;;;;;;5030876;28;20178;-68
2022/03/06 03:48:28;;;;;;;22.83;17.47;;;4.50;83.70;;;;;;5011941;28;20648;-68
2022/03/06 03:50:54;;;;;;;24.38;17.15;;;4.60;84.30;;;;;;4994960;28;20222;-69
2022/03/06 03:53:20;;;;;;;22.05;17.10;;;4.60;84.20;;;;;;5012735;28;20662;-68
2022/03/06 03:55:46;;;;;;;27.00;17.83;;;4.60;83.80;;;;;;5012321;28;20186;-68
2022/03/06 03:58:12;;;;;;;22.17;17.07;;;4.70;83.80;;;;;;5011500;28;20199;-82
2022/03/06 04:00:38;;;;;;;23.80;17.30;;;4.50;83.40;;;;;;5016321;28;20452;-68
2022/03/06 04:03:04;;;;;;;25.85;17.48;;;4.20;83.40;;;;;;5016443;28;20424;-68
2022/03/06 04:05:30;;;;;;;25.10;17.07;;;4.60;84.40;;;;;;5031410;28;20542;-68
2022/03/06 04:07:56;;;;;;;25.47;17.10;;;4.60;84.20;;;;;;5025754;28;20536;-68
2022/03/06 04:10:21;;;;;;;23.20;16.00;;;4.20;83.50;;;;;;5014917;28;20939;-68
2022/03/06 04:12:47;;;;;;;25.30;17.20;;;4.70;84.00;;;;;;5012254;28;20247;-68
2022/03/06 04:15:13;;;;;;;22.80;15.80;;;4.70;84.10;;;;;;5034885;28;20508;-71
2022/03/06 04:17:39;;;;;;;20.87;16.30;;;4.60;84.70;;;;;;5035842;28;20297;-68
2022/03/06 04:20:06;;;;;;;23.37;17.30;;;4.60;84.80;;;;;;5035964;28;20690;-69
2022/03/06 04:22:32;;;;;;;24.83;16.67;;;4.70;85.00;;;;;;5028775;28;20454;-68
2022/03/06 04:24:58;;;;;;;24.50;16.55;;;4.70;84.70;;;;;;4998656;28;20183;-68
2022/03/06 04:27:24;;;;;;;24.43;18.10;;;4.70;84.60;;;;;;5015076;28;20193;-68
2022/03/06 04:29:49;;;;;;;23.40;16.90;;;4.70;84.20;;;;;;5016166;28;20179;-68
2022/03/06 04:32:15;;;;;;;29.33;16.87;;;4.70;84.80;;;;;;5015061;28;20229;-69
2022/03/06 04:34:41;;;;;;;26.20;17.10;;;4.70;85.50;;;;;;5025782;28;20183;-68
2022/03/06 04:37:07;;;;;;;21.27;16.00;;;4.40;84.30;;;;;;5015757;28;20211;-68
2022/03/06 04:39:32;;;;;;;20.33;16.57;;;4.70;84.30;;;;;;5014713;28;20186;-69
2022/03/06 04:41:58;;;;;;;26.03;16.53;;;4.70;84.20;;;;;;5015929;28;20191;-69
2022/03/06 04:44:24;;;;;;;23.27;16.80;;;4.70;84.50;;;;;;5014816;28;20453;-69
2022/03/06 04:46:50;;;;;;;23.77;17.20;;;4.70;84.90;;;;;;5015321;28;20419;-68
2022/03/06 04:49:16;;;;;;;23.43;16.50;;;4.50;84.50;;;;;;4996900;28;20241;-69
2022/03/06 04:51:42;;;;;;;22.83;17.27;;;4.80;84.20;;;;;;5015244;28;20187;-68
2022/03/06 04:54:08;;;;;;;23.73;17.43;;;4.70;84.20;;;;;;4997868;28;20183;-68
2022/03/06 04:56:35;;;;;;;24.23;16.87;;;4.50;84.80;;;;;;5014604;28;20418;-68
2022/03/06 04:59:01;;;;;;;24.75;16.98;;;4.80;84.30;;;;;;5014970;28;20816;-68
2022/03/06 05:01:26;;;;;;;22.80;17.13;;;4.30;84.20;;;;;;5022590;28;20182;-68
2022/03/06 05:03:52;;;;;;;23.53;16.20;;;4.50;84.80;;;;;;5034889;28;20241;-68
2022/03/06 05:06:18;;;;;;;22.43;16.07;;;4.70;85.70;;;;;;5033988;28;20213;-68
2022/03/06 05:08:43;;;;;;;22.80;16.40;;;4.20;84.20;;;;;;5034965;28;20265;-68
2022/03/06 05:11:10;;;;;;;23.50;15.70;;;4.60;83.80;;;;;;5033371;28;20702;-67
2022/03/06 05:13:36;;;;;;;21.17;14.70;;;4.60;83.90;;;;;;5034046;28;20270;-68
2022/03/06 05:16:03;;;;;;;23.02;14.82;;;4.50;84.40;;;;;;5034712;28;20206;-68
2022/03/06 05:18:29;;;;;;;22.33;16.15;;;4.40;85.00;;;;;;5033888;28;20313;-68
2022/03/06 05:20:55;;;;;;;22.33;15.90;;;4.50;84.70;;;;;;5034727;28;20257;-68
2022/03/06 05:23:21;;;;;;;23.45;15.73;;;4.40;85.30;;;;;;5033610;28;20401;-68
2022/03/06 05:25:47;;;;;;;22.77;16.00;;;4.10;85.40;;;;;;5034865;28;20189;-67
2022/03/06 05:28:14;;;;;;;23.83;16.53;;;4.40;86.00;;;;;;4998261;28;20195;-78
2022/03/06 05:30:39;;;;;;;24.90;17.42;;;4.10;85.50;;;;;;5014386;28;20194;-66
2022/03/06 05:33:05;;;;;;;23.03;17.23;;;4.50;85.70;;;;;;5014500;28;20527;-67
2022/03/06 05:35:31;;;;;;;24.37;16.33;;;4.60;86.00;;;;;;5014144;28;20899;-66
2022/03/06 05:37:57;;;;;;;23.10;16.63;;;4.20;85.30;;;;;;4996466;28;20211;-67
2022/03/06 05:40:22;;;;;;;24.83;16.87;;;4.20;85.40;;;;;;5013887;28;20180;-68
2022/03/06 05:42:48;;;;;;;22.90;16.50;;;4.80;85.90;;;;;;5014584;28;20171;-68
2022/03/06 05:45:14;;;;;;;22.70;16.73;;;4.60;85.20;;;;;;5014043;28;20262;-78
2022/03/06 05:47:40;;;;;;;18.47;14.40;;;4.60;85.10;;;;;;5013712;28;20426;-68
2022/03/06 05:50:07;;;;;;;22.20;16.33;;;4.70;85.60;;;;;;5014560;28;20214;-68
2022/03/06 05:52:33;;;;;;;24.75;15.82;;;4.60;85.20;;;;;;5013630;28;20360;-68
2022/03/06 05:54:59;;;;;;;22.00;15.40;;;4.60;85.90;;;;;;5020838;28;20182;-68
2022/03/06 05:57:25;;;;;;;22.13;14.87;;;4.30;85.90;;;;;;5033083;28;20237;-69
2022/03/06 05:59:51;;;;;;;20.30;14.93;;;4.20;85.50;;;;;;5034006;28;20178;-68
2022/03/06 06:02:19;;;;;;;17.98;14.75;;;4.50;85.70;;;;;;5033258;28;20402;-80
2022/03/06 06:04:45;;;;;;;21.15;15.23;;;4.30;85.30;;;;;;5031294;28;20538;-68
2022/03/06 06:07:12;;;;;;;24.75;14.63;;;4.50;85.40;;;;;;5032437;28;20190;-68
2022/03/06 06:09:37;;;;;;;25.88;16.02;;;4.30;84.90;;;;;;5028867;28;20257;-68
2022/03/06 06:12:04;;;;;;;21.23;15.73;;;4.40;85.40;;;;;;5033593;28;20590;-68
2022/03/06 06:14:30;;;;;;;21.88;15.55;;;4.30;85.10;;;;;;5032912;28;20182;-68
2022/03/06 06:16:55;;;;;;;20.80;16.43;;;4.40;85.50;;;;;;5015885;28;20185;-68
2022/03/06 06:19:21;;;;;;;26.40;18.30;;;4.30;85.50;;;;;;5032646;28;20186;-69
2022/03/06 06:21:47;;;;;;;21.73;15.97;;;4.10;85.60;;;;;;5020308;28;20183;-68
2022/03/06 06:24:14;;;;;;;22.27;16.00;;;4.30;86.00;;;;;;5017372;28;20179;-68
2022/03/06 06:26:42;;;;;;;23.35;17.15;;;4.00;86.40;;;;;;5029302;28;20186;-69
2022/03/06 06:29:08;;;;;;;24.25;15.85;;;4.20;87.20;;;;;;5030800;28;20659;-68
2022/03/06 06:31:34;;;;;;;22.60;15.67;;;4.40;87.30;;;;;;5019081;28;20179;-68
2022/03/06 06:33:59;;;;;;;19.23;15.32;;;4.50;87.30;;;;;;5013937;28;20384;-72
2022/03/06 06:36:25;;;;;;;21.53;16.00;;;4.40;87.80;;;;;;4995286;28;20620;-68
2022/03/06 06:38:51;;;;;;;24.73;16.63;;;4.50;88.60;;;;;;5008195;28;20289;-68
2022/03/06 06:41:17;;;;;;;24.13;16.87;;;4.40;88.60;;;;;;5015308;28;20428;-74
2022/03/06 06:43:43;;;;;;;24.20;16.60;;;4.40;88.40;;;;;;5032836;28;20502;-68
2022/03/06 06:46:09;;;;;;;23.77;16.97;;;4.40;89.00;;;;;;5024047;28;20643;-68
2022/03/06 06:48:35;;;;;;;23.38;15.77;;;4.40;89.10;;;;;;5030466;28;20197;-67
2022/03/06 06:51:01;;;;;;;23.77;16.87;;;4.20;88.30;;;;;;5014131;28;20540;-68
2022/03/06 06:53:26;;;;;;;23.43;17.97;;;4.50;89.10;;;;;;5016431;28;20244;-72
2022/03/06 06:55:52;;;;;;;23.00;16.73;;;4.40;89.10;;;;;;5033199;28;20208;-68
2022/03/06 06:58:18;;;;;;;25.70;17.67;;;4.60;89.00;;;;;;5032818;28;20285;-68
2022/03/06 07:00:43;;;;;;;25.20;17.67;;;4.60;88.60;;;;;;5028144;28;20190;-68
2022/03/06 07:03:09;;;;;;;27.20;18.07;;;4.00;86.70;;;;;;4995395;28;20310;-67
2022/03/06 07:05:35;;;;;;;23.57;17.10;;;4.20;86.40;;;;;;4994408;28;20181;-68
2022/03/06 07:08:01;;;;;;;25.60;17.53;;;3.80;87.10;;;;;;5013027;28;20643;-68
2022/03/06 07:10:27;;;;;;;24.93;17.40;;;3.40;87.80;;;;;;5011933;28;20406;-68
2022/03/06 07:12:55;;;;;;;25.88;17.40;;;3.60;88.70;;;;;;5017158;28;20181;-68
2022/03/06 07:15:22;;;;;;;24.95;16.83;;;4.00;89.70;;;;;;5011408;28;20186;-78
2022/03/06 07:17:48;;;;;;;23.90;17.42;;;4.10;89.30;;;;;;5012895;28;20206;-68
2022/03/06 07:20:14;;;;;;;24.00;17.95;;;4.20;88.00;;;;;;5014048;28;20622;-68
2022/03/06 07:22:40;;;;;;;25.57;18.17;;;4.30;87.20;;;;;;5015490;28;20245;-68
2022/03/06 07:25:06;;;;;;;23.90;17.40;;;4.00;86.50;;;;;;5015254;28;20778;-68
2022/03/06 07:27:32;;;;;;;24.80;18.35;;;4.30;87.00;;;;;;5000331;28;20179;-68
2022/03/06 07:29:58;;;;;;;26.50;19.40;;;4.40;87.00;;;;;;5025261;28;20167;-67
2022/03/06 07:32:24;;;;;;;24.25;17.48;;;4.10;86.60;;;;;;5031062;28;20191;-69
2022/03/06 07:34:50;;;;;;;24.30;17.47;;;4.50;86.10;;;;;;5022129;28;20198;-68
2022/03/06 07:37:15;;;;;;;25.30;18.83;;;4.00;85.70;;;;;;5000354;28;20526;-68
2022/03/06 07:39:41;;;;;;;23.03;16.87;;;4.50;86.00;;;;;;5020666;28;20450;-69
2022/03/06 07:42:07;;;;;;;27.17;17.50;;;4.30;85.50;;;;;;5022717;28;20626;-68
2022/03/06 07:44:34;;;;;;;22.10;17.33;;;4.40;85.70;;;;;;5023025;28;20422;-69
2022/03/06 07:46:59;;;;;;;24.00;17.48;;;4.60;86.80;;;;;;5032239;28;20193;-68
2022/03/06 07:49:25;;;;;;;23.00;16.63;;;4.40;87.00;;;;;;5006581;28;20578;-69
2022/03/06 07:51:51;;;;;;;27.10;18.23;;;4.50;86.80;;;;;;5028424;28;20439;-69
2022/03/06 07:54:17;;;;;;;28.63;17.90;;;4.60;86.90;;;;;;5029434;28;20178;-68
2022/03/06 07:56:46;;;;;;;23.98;16.85;;;4.70;86.50;;;;;;5026868;28;20693;-68
2022/03/06 07:59:12;;;;;;;24.92;17.48;;;4.90;85.40;;;;;;5023134;28;20186;-69
2022/03/06 08:01:38;;;;;;;24.80;17.70;;;4.30;83.90;;;;;;5006083;28;20183;-68
2022/03/06 08:04:04;;;;;;;22.90;17.30;;;4.80;85.20;;;;;;5008539;28;20422;-68
2022/03/06 08:06:29;;;;;;;24.70;17.50;;;4.90;85.40;;;;;;5015295;28;20191;-69
2022/03/06 08:08:55;;;;;;;24.53;17.30;;;5.00;85.10;;;;;;5012661;28;20261;-69
2022/03/06 08:11:21;;;;;;;22.90;16.90;;;5.00;85.50;;;;;;5019933;28;20190;-68
2022/03/06 08:13:46;;;;;;;23.07;18.20;;;4.60;85.30;;;;;;5031559;28;20607;-68
2022/03/06 08:16:12;;;;;;;29.00;18.30;;;5.10;86.60;;;;;;5035200;28;20188;-69
2022/03/06 08:18:38;;;;;;;22.83;16.93;;;5.30;86.30;;;;;;5030367;28;20214;-68
2022/03/06 08:21:04;;;;;;;24.57;17.97;;;5.00;85.50;;;;;;5026306;28;20178;-68
2022/03/06 08:23:30;;;;;;;24.40;16.85;;;5.30;87.00;;;;;;5029534;28;20190;-68
2022/03/06 08:25:56;;;;;;;24.73;18.70;;;5.40;87.50;;;;;;5001999;28;20647;-68
2022/03/06 08:28:21;;;;;;;26.33;18.20;;;5.50;85.70;;;;;;5025734;28;20191;-68
2022/03/06 08:30:47;;;;;;;951.60;510.97;;;5.60;84.60;;;;;;5014379;28;20191;-68
2022/03/06 08:33:14;;;;;;;57.00;35.75;;;5.10;83.30;;;;;;5029813;28;20684;-68
2022/03/06 08:35:40;;;;;;;29.30;17.50;;;5.60;83.40;;;;;;5020853;28;20198;-68
2022/03/06 08:38:06;;;;;;;29.27;18.35;;;5.30;83.80;;;;;;5022730;28;20282;-67
2022/03/06 08:40:31;;;;;;;25.97;17.80;;;5.50;85.00;;;;;;5023395;28;20282;-68
2022/03/06 08:42:57;;;;;;;23.40;17.70;;;5.70;86.00;;;;;;5019191;28;20242;-68
2022/03/06 08:45:24;;;;;;;23.70;19.07;;;5.80;86.70;;;;;;5027771;28;20187;-68
2022/03/06 08:47:50;;;;;;;21.90;17.58;;;6.00;85.50;;;;;;5025129;28;20486;-69
2022/03/06 08:50:15;;;;;;;155.57;85.47;;;6.00;82.90;;;;;;5028024;28;20214;-72
2022/03/06 08:52:41;;;;;;;28.63;22.10;;;6.00;83.50;;;;;;5031360;28;20213;-70
2022/03/06 08:55:09;;;;;;;25.90;18.50;;;6.10;84.50;;;;;;5009722;28;20179;-69
2022/03/06 08:57:35;;;;;;;27.13;19.38;;;6.00;84.40;;;;;;5024026;28;20221;-69
2022/03/06 09:00:01;;;;;;;23.63;18.03;;;6.20;84.20;;;;;;5025882;28;20257;-66
2022/03/06 09:02:26;;;;;;;27.73;19.67;;;6.30;83.00;;;;;;5022785;28;21011;-68
2022/03/06 09:04:52;;;;;;;27.07;18.20;;;6.40;83.30;;;;;;5026243;28;20187;-68
2022/03/06 09:07:18;;;;;;;23.53;17.97;;;6.50;82.80;;;;;;5024220;28;20193;-69
2022/03/06 09:09:43;;;;;;;24.50;17.70;;;6.60;82.50;;;;;;5022055;28;20434;-69
2022/03/06 09:12:09;;;;;;;22.00;17.37;;;6.70;82.30;;;;;;5029680;28;20598;-68
2022/03/06 09:14:35;;;;;;;26.20;18.70;;;6.70;84.60;;;;;;5025988;28;20235;-67
2022/03/06 09:17:01;;;;;;;25.47;17.53;;;6.90;84.10;;;;;;5023504;28;20403;-68
2022/03/06 09:19:27;;;;;;;21.17;16.97;;;7.00;83.30;;;;;;4990878;28;20268;-80
2022/03/06 09:21:53;;;;;;;24.90;16.90;;;7.10;83.30;;;;;;5028988;28;20193;-69
2022/03/06 09:24:19;;;;;;;21.00;16.30;;;7.30;81.80;;;;;;5025131;28;20184;-72
2022/03/06 09:26:47;;;;;;;21.27;16.90;;;7.30;81.70;;;;;;5024147;28;20428;-69
2022/03/06 09:29:13;;;;;;;19.70;16.10;;;7.40;82.70;;;;;;5021365;28;20907;-68
2022/03/06 09:31:39;;;;;;;46.30;36.50;;;7.70;81.40;;;;;;5021931;28;20432;-69
2022/03/06 09:34:06;;;;;;;124.53;66.47;;;7.80;78.70;;;;;;5029345;28;20417;-68
2022/03/06 09:36:32;;;;;;;21.33;15.93;;;8.00;82.70;;;;;;5024310;28;20386;-68
2022/03/06 09:38:58;;;;;;;18.97;16.10;;;8.10;80.00;;;;;;5020368;28;20473;-68
2022/03/06 09:41:27;;;;;;;18.80;16.30;;;8.30;79.30;;;;;;5021883;28;20780;-68
2022/03/06 09:43:57;;;;;;;17.97;15.50;;;8.40;79.50;;;;;;5024623;28;20178;-68
2022/03/06 09:46:23;;;;;;;21.80;15.53;;;8.60;78.00;;;;;;5025764;28;20427;-69
2022/03/06 09:48:50;;;;;;;18.33;16.30;;;8.90;75.50;;;;;;5031655;28;20826;-69
2022/03/06 09:51:16;;;;;;;22.07;16.40;;;8.90;76.00;;;;;;5034381;28;20440;-69
2022/03/06 09:53:42;;;;;;;17.13;15.00;;;9.20;77.50;;;;;;5029699;28;20471;-69
2022/03/06 09:56:08;;;;;;;17.90;14.93;;;9.50;71.70;;;;;;5016583;28;20417;-69
2022/03/06 09:58:33;;;;;;;17.97;14.67;;;9.80;71.10;;;;;;5032987;28;20459;-69
2022/03/06 10:00:59;;;;;;;16.27;14.57;;;10.00;67.50;;;;;;5026309;28;20180;-69
2022/03/06 10:03:25;;;;;;;16.00;14.30;;;10.30;66.80;;;;;;5014656;28;20176;-69
2022/03/06 10:05:52;;;;;;;17.83;15.13;;;10.50;67.20;;;;;;5018233;28;20184;-69
2022/03/06 10:08:23;;;;;;;19.07;16.00;;;10.50;66.80;;;;;;5014265;28;20412;-68
2022/03/06 10:10:59;;;;;;;18.20;16.20;;;10.60;67.30;;;;;;5006818;28;20431;-67
2022/03/06 10:13:32;;;;;;;15.70;14.10;;;10.60;65.90;;;;;;5027279;28;20547;-67
2022/03/06 10:16:25;;;;;;;16.67;14.73;;;10.70;66.10;;;;;;5034003;28;20824;-68
2022/03/06 10:18:55;;;;;;;18.00;16.10;;;11.00;64.90;;;;;;5029909;28;20488;-67
2022/03/06 10:21:27;;;;;;;226.60;115.73;;;11.20;65.30;;;;;;5033904;28;20777;-68
2022/03/06 10:23:58;;;;;;;87.77;58.17;;;11.40;62.00;;;;;;5040202;28;20467;-65
2022/03/06 10:26:28;;;;;;;16.73;15.00;;;11.30;64.70;;;;;;5014577;28;20480;-65
2022/03/06 10:29:00;;;;;;;15.57;14.07;;;11.40;64.00;;;;;;5016516;28;20424;-65
2022/03/06 10:31:29;;;;;;;15.43;13.83;;;11.60;61.30;;;;;;5020683;28;20458;-73
2022/03/06 10:34:11;;;;;;;15.00;13.50;;;11.80;59.30;;;;;;5014234;28;20932;-70
2022/03/06 10:36:39;;;;;;;15.20;13.70;;;12.10;55.60;;;;;;5032957;28;20400;-69
2022/03/06 10:39:09;;;;;;;14.60;13.10;;;12.50;58.00;;;;;;5033327;28;20462;-69
2022/03/06 10:41:41;;;;;;;14.23;12.60;;;12.80;55.70;;;;;;5010288;28;20881;-69
2022/03/06 10:44:09;;;;;;;17.30;12.70;;;12.80;55.90;;;;;;5032175;28;20452;-67
2022/03/06 10:46:36;;;;;;;13.47;12.13;;;12.70;53.80;;;;;;5032876;28;20409;-67
2022/03/06 10:49:14;;;;;;;32.30;23.80;;;12.80;55.60;;;;;;5033090;28;20496;-65
2022/03/06 10:51:48;;;;;;;13.97;12.37;;;12.90;54.90;;;;;;5032583;28;20409;-66
2022/03/06 10:54:16;;;;;;;13.27;11.93;;;13.00;51.50;;;;;;5032837;28;20433;-66
2022/03/06 10:56:43;;;;;;;13.20;11.90;;;13.00;54.00;;;;;;5032084;28;20453;-66
2022/03/06 10:59:10;;;;;;;13.00;11.73;;;13.10;51.10;;;;;;5015135;28;20797;-66
2022/03/06 11:01:37;;;;;;;12.77;11.47;;;12.80;50.70;;;;;;5032517;28;20446;-66
2022/03/06 11:04:06;;;;;;;13.30;11.90;;;13.10;48.80;;;;;;5033236;28;20507;-66
2022/03/06 11:06:42;;;;;;;12.93;11.50;;;13.30;50.50;;;;;;5032369;28;20424;-67
2022/03/06 11:09:13;;;;;;;13.30;11.80;;;13.30;49.60;;;;;;5020603;28;20415;-66
2022/03/06 11:11:46;;;;;;;11.23;10.23;;;13.20;48.10;;;;;;5032400;28;20438;-66
2022/03/06 11:14:13;;;;;;;11.50;10.40;;;13.20;48.90;;;;;;5032522;28;20425;-68
2022/03/06 11:16:40;;;;;;;13.43;12.13;;;13.20;49.00;;;;;;5014603;28;20828;-68
2022/03/06 11:19:07;;;;;;;13.77;11.67;;;13.20;48.30;;;;;;5032800;28;20474;-68
2022/03/06 11:21:39;;;;;;;12.30;11.10;;;13.30;48.60;;;;;;5032041;28;20966;-68
2022/03/06 11:24:28;;;;;;;13.27;11.70;;;13.30;47.40;;;;;;5032761;28;20801;-67
2022/03/06 11:27:25;;;;;;;12.33;11.10;;;13.40;46.80;;;;;;5032346;28;20412;-68
2022/03/06 11:30:22;;;;;;;13.10;11.80;;;13.40;47.80;;;;;;5025502;28;20563;-68
2022/03/06 11:33:06;;;;;;;13.47;12.03;;;13.40;47.90;;;;;;5023247;28;20505;-68
2022/03/06 11:35:35;;;;;;;86.33;52.10;;;13.50;49.90;;;;;;5031434;28;20818;-68
2022/03/06 11:38:02;;;;;;;74.07;50.97;;;13.50;46.50;;;;;;5032176;28;20458;-67
2022/03/06 11:40:48;;;;;;;13.33;11.93;;;13.60;48.50;;;;;;5024188;28;20415;-68
2022/03/06 11:43:38;;;;;;;11.73;10.63;;;13.70;44.90;;;;;;5029965;28;20459;-67
2022/03/06 11:46:11;;;;;;;12.97;11.50;;;14.00;44.10;;;;;;5014543;28;20404;-66
2022/03/06 11:48:37;;;;;;;13.60;12.30;;;14.00;45.60;;;;;;5030964;28;20433;-66
2022/03/06 11:51:21;;;;;;;12.53;11.40;;;13.80;46.00;;;;;;5022768;28;20440;-66
2022/03/06 11:54:07;;;;;;;14.50;13.10;;;14.00;45.10;;;;;;5023856;28;20689;-66
2022/03/06 11:56:33;;;;;;;13.47;12.17;;;14.10;46.00;;;;;;5025466;28;20433;-66
2022/03/06 11:59:00;;;;;;;14.53;13.20;;;13.90;45.00;;;;;;5014659;28;20464;-68
2022/03/06 12:01:34;;;;;;;12.90;11.70;;;13.80;46.60;;;;;;5028749;28;20179;-67
2022/03/06 12:04:15;;;;;;;12.77;11.57;;;13.90;46.10;;;;;;5032616;28;20401;-67
2022/03/06 12:07:08;;;;;;;12.40;11.23;;;14.10;45.20;;;;;;5031555;28;20492;-66
2022/03/06 12:09:39;;;;;;;15.33;13.87;;;14.00;43.90;;;;;;5028273;28;20455;-66
2022/03/06 12:12:07;;;;;;;14.03;12.73;;;14.30;45.00;;;;;;5031790;28;20411;-67
2022/03/06 12:14:38;;;;;;;12.70;11.50;;;14.30;45.70;;;;;;5031646;28;20412;-67
2022/03/06 12:17:07;;;;;;;37.83;28.47;;;14.00;45.10;;;;;;5032039;28;20511;-66
2022/03/06 12:19:42;;;;;;;15.75;14.25;;;13.90;46.80;;;;;;5030972;28;20417;-67
2022/03/06 12:22:14;;;;;;;14.97;13.57;;;13.90;45.80;;;;;;5018036;28;20200;-67
2022/03/06 12:24:42;;;;;;;14.87;13.47;;;13.60;42.10;;;;;;5035721;28;20480;-66
2022/03/06 12:27:19;;;;;;;13.63;12.33;;;13.40;43.70;;;;;;5035733;28;20411;-66
2022/03/06 12:29:48;;;;;;;13.30;12.03;;;13.20;47.50;;;;;;5013548;28;20830;-67
2022/03/06 12:32:29;;;;;;;14.47;13.17;;;13.40;46.10;;;;;;5000042;28;20929;-67
2022/03/06 12:35:02;;;;;;;13.07;11.77;;;13.60;46.80;;;;;;4981776;28;20413;-67
2022/03/06 12:37:50;;;;;;;15.57;14.03;;;13.60;46.70;;;;;;5016476;28;20449;-66